Time;durP1;ratioP1;P1;durP2;ratioP2;P2;SDS_P1;SDS_P2;PMS_P1;PMS_P2;Temp;Humidity;BMP_temperature;BMP_pressure;BME280_temperature;BME280_humidity;BME280_pressure;Samples;Min_cycle;Max_cycle;Signal;HPM_P1;HPM_P2
2022/05/19 00:01:51;;;;;;;4.85;2.53;;;;;;;13.98;66.28;100147.63;5023988;27;20906;-51
2022/05/19 00:04:18;;;;;;;4.65;2.40;;;;;;;13.96;66.70;100148.53;5017140;28;20053;-47
2022/05/19 00:06:45;;;;;;;7.40;2.40;;;;;;;13.93;66.51;100149.44;5013642;28;20410;-53
2022/05/19 00:09:11;;;;;;;4.32;2.60;;;;;;;13.93;65.57;100143.38;5009736;28;21815;-50
2022/05/19 00:11:39;;;;;;;6.22;3.25;;;;;;;13.92;65.78;100142.53;5012098;28;20050;-53
2022/05/19 00:14:07;;;;;;;4.50;3.00;;;;;;;13.91;66.21;100146.00;5003916;28;20482;-50
2022/05/19 00:16:33;;;;;;;5.78;2.90;;;;;;;13.93;65.79;100138.16;5017217;28;20061;-45
2022/05/19 00:19:01;;;;;;;4.82;2.22;;;;;;;13.94;65.84;100124.25;5010920;28;20414;-49
2022/05/19 00:21:29;;;;;;;7.88;3.00;;;;;;;13.93;66.55;100122.53;5011056;28;20041;-49
2022/05/19 00:23:57;;;;;;;6.47;2.95;;;;;;;13.96;65.75;100125.09;5010625;28;20104;-48
2022/05/19 00:26:26;;;;;;;7.07;3.13;;;;;;;13.96;66.40;100117.28;5014802;28;20517;-48
2022/05/19 00:28:55;;;;;;;5.82;2.47;;;;;;;13.96;66.50;100115.56;5008328;28;20122;-48
2022/05/19 00:31:26;;;;;;;5.65;3.30;;;;;;;13.97;65.33;100124.22;5010323;28;20793;-47
2022/05/19 00:33:54;;;;;;;4.30;2.10;;;;;;;14.00;66.49;100129.38;5011663;28;20402;-52
2022/05/19 00:36:23;;;;;;;6.22;3.58;;;;;;;14.00;65.37;100130.25;5005875;28;20125;-46
2022/05/19 00:38:50;;;;;;;6.15;2.90;;;;;;;14.01;66.14;100121.53;5015805;28;20049;-52
2022/05/19 00:41:17;;;;;;;6.25;2.85;;;;;;;13.99;66.24;100127.66;5011747;28;20042;-49
2022/05/19 00:44:03;;;;;;;5.00;2.15;;;;;;;14.00;65.52;100135.47;5006761;28;20395;-49
2022/05/19 00:51:54;;;;;;;5.93;2.28;;;;;;;13.98;65.54;100136.34;5047547;27;20411;-50
2022/05/19 00:54:26;;;;;;;5.18;1.90;;;;;;;13.91;66.48;100134.75;5023755;28;20046;-54
2022/05/19 00:56:59;;;;;;;5.82;1.45;;;;;;;13.80;66.47;100137.47;5021590;28;20127;-49
2022/05/19 00:59:33;;;;;;;6.55;2.28;;;;;;;13.79;66.41;100134.03;5024535;28;20046;-50
2022/05/19 01:02:01;;;;;;;5.45;1.83;;;;;;;13.82;65.78;100120.94;5018934;28;20046;-47
2022/05/19 01:07:13;;;;;;;4.80;3.35;;;;;;;13.85;66.24;100099.25;5041974;28;20409;-52
2022/05/19 01:09:40;;;;;;;5.70;3.58;;;;;;;13.79;66.05;100110.63;5031388;28;20058;-51
2022/05/19 01:12:09;;;;;;;6.35;3.28;;;;;;;13.66;66.58;100114.25;5022391;28;20464;-58
2022/05/19 01:14:36;;;;;;;6.80;3.00;;;;;;;13.56;67.12;100109.19;5007605;28;20100;-45
2022/05/19 01:17:06;;;;;;;5.18;2.80;;;;;;;13.53;66.67;100119.66;5035175;28;20652;-52
2022/05/19 01:19:40;;;;;;;4.72;3.22;;;;;;;13.48;66.97;100116.22;5000656;28;20050;-48
2022/05/19 01:25:06;;;;;;;5.53;2.05;;;;;;;13.43;67.08;100118.00;5026550;28;20395;-49
2022/05/19 01:27:33;;;;;;;5.78;1.58;;;;;;;13.44;67.07;100119.75;5004266;28;20101;-54
2022/05/19 01:30:01;;;;;;;5.57;2.17;;;;;;;13.42;68.34;100122.38;5001347;28;21743;-48
2022/05/19 01:32:30;;;;;;;5.65;1.75;;;;;;;13.45;67.82;100116.25;5006871;28;20050;-53
2022/05/19 01:34:58;;;;;;;4.43;1.55;;;;;;;13.47;67.57;100114.47;5004489;28;20050;-49
2022/05/19 01:37:25;;;;;;;4.13;1.90;;;;;;;13.46;67.30;100118.84;5005163;28;20049;-53
2022/05/19 01:39:59;;;;;;;5.70;2.00;;;;;;;13.47;67.19;100120.56;4996221;28;20051;-52
2022/05/19 01:45:40;;;;;;;5.55;2.30;;;;;;;13.46;67.37;100116.25;5060310;27;20392;-46
2022/05/19 01:48:20;;;;;;;3.80;1.65;;;;;;;13.46;68.33;100117.97;5010604;28;20100;-45
2022/05/19 01:50:54;;;;;;;6.78;1.73;;;;;;;13.46;67.89;100115.38;5029807;28;20049;-48
2022/05/19 02:14:41;;;;;;;6.03;2.90;;;;;;;13.58;68.32;100128.25;5063865;28;20399;-52
2022/05/19 02:17:10;;;;;;;5.35;2.20;;;;;;;13.61;68.83;100138.63;5025573;28;20716;-47
2022/05/19 02:19:45;;;;;;;6.38;2.38;;;;;;;13.61;68.46;100128.19;5023568;28;20049;-45
2022/05/19 02:22:33;;;;;;;5.82;2.08;;;;;;;13.64;68.24;100131.66;5022349;28;20499;-50
2022/05/19 02:25:09;;;;;;;6.70;1.95;;;;;;;13.65;67.73;100138.56;5020064;28;20437;-45
2022/05/19 02:27:44;;;;;;;5.22;1.98;;;;;;;13.68;68.52;100148.94;5018258;28;20050;-50
2022/05/19 02:30:16;;;;;;;3.92;1.50;;;;;;;13.67;68.72;100152.41;5012722;28;20050;-51
2022/05/19 02:32:43;;;;;;;5.72;2.03;;;;;;;13.69;68.01;100161.06;5015100;28;20054;-52
2022/05/19 02:35:11;;;;;;;4.90;2.10;;;;;;;13.68;68.32;100155.00;5018675;28;20046;-47
2022/05/19 02:37:38;;;;;;;7.55;2.10;;;;;;;13.69;67.68;100171.47;5002486;28;20054;-48
2022/05/19 02:40:06;;;;;;;6.45;1.70;;;;;;;13.68;68.25;100174.97;4995509;28;20530;-49
2022/05/19 02:42:33;;;;;;;6.28;1.70;;;;;;;13.66;67.90;100166.31;4997677;28;20054;-48
2022/05/19 02:45:00;;;;;;;4.38;1.90;;;;;;;13.64;67.26;100157.69;5000375;28;20050;-49
2022/05/19 02:47:26;;;;;;;7.82;1.92;;;;;;;13.62;68.17;100165.50;4995584;28;20687;-47
2022/05/19 02:49:53;;;;;;;5.95;1.80;;;;;;;13.61;68.16;100162.03;4997039;28;20103;-51
2022/05/19 02:52:20;;;;;;;5.75;1.80;;;;;;;13.59;67.84;100160.34;5002006;28;20046;-48
2022/05/19 02:54:46;;;;;;;6.85;1.80;;;;;;;13.59;68.18;100176.81;4993546;28;20610;-51
2022/05/19 02:57:13;;;;;;;4.15;1.98;;;;;;;13.57;68.39;100175.09;4999806;28;20547;-53
2022/05/19 02:59:40;;;;;;;5.55;2.00;;;;;;;13.54;68.51;100181.22;4997264;28;20413;-48
2022/05/19 03:02:06;;;;;;;4.38;1.70;;;;;;;13.54;68.52;100173.41;5007796;28;20050;-51
2022/05/19 03:04:33;;;;;;;6.15;1.70;;;;;;;13.53;67.57;100176.03;5014949;28;20136;-46
2022/05/19 03:07:00;;;;;;;6.20;2.33;;;;;;;13.52;68.20;100174.31;5016071;28;20046;-50
2022/05/19 03:09:26;;;;;;;4.78;2.10;;;;;;;13.50;68.24;100176.94;5017522;28;20123;-52
2022/05/19 03:11:53;;;;;;;6.15;1.80;;;;;;;13.45;68.30;100178.72;5016060;28;20065;-46
2022/05/19 03:14:20;;;;;;;4.13;2.08;;;;;;;13.41;67.44;100179.63;5015105;28;20107;-56
2022/05/19 03:16:46;;;;;;;5.38;2.03;;;;;;;13.37;68.30;100184.84;5019745;28;20049;-48
2022/05/19 03:19:15;;;;;;;4.03;1.92;;;;;;;13.37;67.49;100187.47;5013668;28;20057;-47
2022/05/19 03:21:42;;;;;;;6.90;2.10;;;;;;;13.36;67.94;100190.06;5017666;28;20049;-50
2022/05/19 03:24:09;;;;;;;5.80;2.28;;;;;;;13.35;68.23;100189.19;5014136;28;20144;-54
2022/05/19 03:26:36;;;;;;;6.55;2.13;;;;;;;13.34;68.49;100186.66;5000111;28;20097;-45
2022/05/19 03:29:03;;;;;;;5.90;2.72;;;;;;;13.32;67.21;100188.41;4999486;28;20045;-47
2022/05/19 03:31:30;;;;;;;5.28;2.22;;;;;;;13.26;67.45;100198.84;5000574;28;20108;-53
2022/05/19 03:33:57;;;;;;;5.82;2.42;;;;;;;13.20;67.36;100191.97;4996182;28;20133;-46
2022/05/19 03:36:24;;;;;;;7.82;1.90;;;;;;;13.13;68.00;100188.59;4988077;28;20446;-50
2022/05/19 03:38:50;;;;;;;5.10;2.72;;;;;;;13.07;68.38;100179.13;4986971;28;20561;-50
2022/05/19 03:41:17;;;;;;;5.63;2.13;;;;;;;13.03;67.20;100182.63;4982550;28;20503;-47
2022/05/19 03:43:44;;;;;;;6.88;2.58;;;;;;;12.96;68.35;100180.97;4987651;28;20467;-45
2022/05/19 03:46:10;;;;;;;6.85;2.60;;;;;;;12.92;68.41;100184.50;4982004;28;20073;-46
2022/05/19 03:48:38;;;;;;;8.90;3.25;;;;;;;12.89;67.99;100181.91;4982641;28;20054;-52
2022/05/19 03:51:09;;;;;;;7.55;2.35;;;;;;;12.82;67.18;100174.19;4983248;28;20047;-47
2022/05/19 03:53:36;;;;;;;9.20;3.03;;;;;;;12.77;67.90;100181.16;4985573;28;20414;-49
2022/05/19 03:56:03;;;;;;;8.90;2.83;;;;;;;12.72;67.42;100186.44;4984620;28;20051;-50
2022/05/19 03:58:29;;;;;;;7.07;2.75;;;;;;;12.67;68.40;100188.19;4982715;28;20560;-48
2022/05/19 04:00:56;;;;;;;6.63;3.10;;;;;;;12.63;67.62;100189.09;4985199;28;20050;-56
2022/05/19 04:03:22;;;;;;;6.70;2.55;;;;;;;12.60;68.33;100189.97;4984654;28;20540;-51
2022/05/19 04:05:49;;;;;;;6.75;3.00;;;;;;;12.56;67.46;100182.22;5006457;28;21052;-51
2022/05/19 04:08:16;;;;;;;8.18;3.10;;;;;;;12.51;68.32;100179.69;5002977;28;20050;-55
2022/05/19 04:10:49;;;;;;;8.25;3.25;;;;;;;12.47;67.72;100189.22;5002795;28;20053;-56
2022/05/19 04:13:15;;;;;;;8.32;3.15;;;;;;;12.44;68.02;100194.47;5002331;28;20054;-51
2022/05/19 04:15:42;;;;;;;9.63;3.00;;;;;;;12.42;67.71;100191.00;4998029;28;20108;-51
2022/05/19 04:18:09;;;;;;;9.05;3.05;;;;;;;12.40;68.75;100190.16;5005052;28;20054;-50
2022/05/19 04:20:35;;;;;;;8.52;3.10;;;;;;;12.42;67.91;100195.31;5005688;28;20120;-52
2022/05/19 04:23:02;;;;;;;7.95;3.05;;;;;;;12.41;68.48;100185.81;5004094;28;20057;-46
2022/05/19 04:25:30;;;;;;;10.57;3.22;;;;;;;12.43;68.29;100191.88;4997234;28;20057;-44
2022/05/19 04:27:58;;;;;;;9.60;4.00;;;;;;;12.46;67.86;100202.22;5003743;28;20058;-47
2022/05/19 04:30:25;;;;;;;6.80;3.10;;;;;;;12.49;68.57;100191.81;5003783;28;20069;-53
2022/05/19 04:33:10;;;;;;;8.80;3.60;;;;;;;12.54;68.75;100195.25;5004567;28;20729;-45
2022/05/19 04:35:37;;;;;;;9.60;3.88;;;;;;;12.57;69.19;100187.41;5004955;28;20100;-54
2022/05/19 04:38:10;;;;;;;8.60;2.92;;;;;;;12.60;67.88;100184.78;5001669;28;20046;-48
2022/05/19 04:40:39;;;;;;;7.65;3.58;;;;;;;12.64;68.70;100185.63;5000214;28;20057;-54
2022/05/19 04:43:11;;;;;;;9.75;3.42;;;;;;;12.67;68.83;100195.13;4999442;28;20761;-47
2022/05/19 04:45:37;;;;;;;8.07;3.50;;;;;;;12.69;68.08;100194.25;5004668;28;20046;-46
2022/05/19 04:48:04;;;;;;;11.00;3.60;;;;;;;12.69;68.58;100189.03;5000788;28;20092;-55
2022/05/19 04:50:31;;;;;;;7.45;3.25;;;;;;;12.72;68.02;100188.16;5001576;28;20122;-57
2022/05/19 04:52:59;;;;;;;10.20;3.45;;;;;;;12.72;68.38;100189.03;5001546;28;20506;-52
2022/05/19 04:55:26;;;;;;;8.05;3.40;;;;;;;12.74;69.31;100191.59;4995270;28;20506;-54
2022/05/19 04:57:53;;;;;;;8.20;2.88;;;;;;;12.76;68.53;100191.59;5000267;28;20050;-47
2022/05/19 05:00:21;;;;;;;7.22;3.47;;;;;;;12.78;68.92;100188.09;4996123;28;20096;-51
2022/05/19 05:02:47;;;;;;;6.80;3.17;;;;;;;12.83;69.13;100191.50;5002595;28;20050;-52
2022/05/19 05:05:14;;;;;;;8.00;3.05;;;;;;;12.85;68.88;100184.56;4999388;28;20045;-54
2022/05/19 05:07:41;;;;;;;8.23;3.13;;;;;;;12.90;68.90;100181.06;5000202;28;20131;-54
2022/05/19 05:10:08;;;;;;;8.85;3.08;;;;;;;12.91;69.29;100187.97;5003398;28;20049;-50
2022/05/19 05:12:35;;;;;;;8.60;3.10;;;;;;;12.94;69.02;100195.75;5002285;28;20076;-48
2022/05/19 05:15:03;;;;;;;8.23;3.10;;;;;;;12.97;68.27;100195.72;5000850;28;20049;-48
2022/05/19 05:17:29;;;;;;;7.15;3.05;;;;;;;12.97;68.10;100204.38;4980784;28;20073;-50
2022/05/19 05:19:56;;;;;;;9.02;3.08;;;;;;;13.00;68.96;100198.25;4980290;28;20050;-49
2022/05/19 05:22:23;;;;;;;8.90;3.22;;;;;;;13.03;68.12;100200.00;4980250;28;20561;-48
2022/05/19 05:24:50;;;;;;;7.53;2.88;;;;;;;13.05;68.25;100186.09;4982510;28;20058;-48
2022/05/19 05:27:16;;;;;;;8.55;3.45;;;;;;;13.09;68.76;100198.19;4980148;28;20046;-48
2022/05/19 05:29:43;;;;;;;6.15;2.95;;;;;;;13.14;68.39;100205.91;4982401;28;20053;-55
2022/05/19 05:32:10;;;;;;;7.00;2.55;;;;;;;13.20;69.23;100199.78;4979928;28;20054;-53
2022/05/19 05:34:36;;;;;;;8.10;3.10;;;;;;;13.26;68.24;100210.13;4981457;28;20518;-55
2022/05/19 05:37:04;;;;;;;9.00;3.08;;;;;;;13.31;68.94;100217.91;4987926;28;20682;-48
2022/05/19 05:39:30;;;;;;;5.43;2.67;;;;;;;13.34;69.17;100216.09;4983388;28;20556;-46
2022/05/19 05:42:02;;;;;;;6.07;3.10;;;;;;;13.39;68.61;100204.78;5004331;28;20072;-51
2022/05/19 05:44:28;;;;;;;6.80;2.65;;;;;;;13.44;68.32;100192.59;5004984;28;20053;-47
2022/05/19 05:46:55;;;;;;;6.07;2.72;;;;;;;13.49;69.40;100211.66;5002661;28;20508;-50
2022/05/19 05:49:39;;;;;;;8.30;3.15;;;;;;;13.61;69.23;100229.69;5001027;28;20127;-56
2022/05/19 05:52:07;;;;;;;7.18;2.97;;;;;;;13.76;70.13;100235.59;4988787;28;20049;-52
2022/05/19 05:54:34;;;;;;;8.48;3.20;;;;;;;13.95;70.21;100222.34;4993009;28;20103;-46
2022/05/19 05:57:01;;;;;;;9.73;3.38;;;;;;;14.12;70.52;100233.34;4997698;28;20045;-49
2022/05/19 05:59:28;;;;;;;6.10;2.78;;;;;;;14.26;70.23;100224.50;4985396;28;20108;-48
2022/05/19 06:01:54;;;;;;;6.88;2.83;;;;;;;14.39;69.80;100226.00;4995882;28;20382;-48
2022/05/19 06:04:21;;;;;;;7.35;2.80;;;;;;;14.56;69.88;100227.47;4998958;28;20038;-54
2022/05/19 06:06:48;;;;;;;6.45;2.53;;;;;;;14.73;69.61;100219.38;4995733;28;20473;-57
2022/05/19 06:09:15;;;;;;;5.07;2.30;;;;;;;14.89;69.43;100209.56;4995133;28;20658;-51
2022/05/19 06:11:42;;;;;;;7.55;3.20;;;;;;;15.04;69.38;100208.41;4993667;28;20054;-51
2022/05/19 06:14:09;;;;;;;7.65;2.50;;;;;;;15.15;69.03;100218.69;4991090;28;20042;-48
2022/05/19 06:16:36;;;;;;;6.53;2.67;;;;;;;15.18;68.35;100224.72;4994604;28;20782;-48
2022/05/19 06:19:03;;;;;;;6.03;2.42;;;;;;;15.18;68.41;100219.50;4991325;28;20052;-54
2022/05/19 06:21:30;;;;;;;6.85;2.88;;;;;;;15.18;67.76;100236.00;4991722;28;20065;-47
2022/05/19 06:23:56;;;;;;;6.18;2.65;;;;;;;15.18;67.95;100250.78;4997129;28;20073;-50
2022/05/19 06:26:23;;;;;;;6.13;2.63;;;;;;;15.15;67.72;100255.19;4993999;28;20049;-52
2022/05/19 06:28:49;;;;;;;9.18;3.75;;;;;;;15.14;68.03;100240.41;4991339;28;20050;-49
2022/05/19 06:31:16;;;;;;;7.95;3.22;;;;;;;15.12;67.91;100241.34;4993433;28;20041;-47
2022/05/19 06:33:43;;;;;;;9.38;3.95;;;;;;;15.10;67.42;100243.97;4996374;28;20449;-47
2022/05/19 06:36:10;;;;;;;8.23;3.90;;;;;;;15.07;67.60;100264.03;4996619;28;20057;-48
2022/05/19 06:38:37;;;;;;;9.43;4.03;;;;;;;15.04;67.60;100275.41;4995604;28;20767;-46
2022/05/19 06:43:51;;;;;;;6.07;3.42;;;;;;;15.02;67.58;100261.50;4976893;28;20104;-48
2022/05/19 06:46:18;;;;;;;7.90;3.40;;;;;;;15.01;67.47;100275.44;4979249;28;20054;-52
2022/05/19 06:48:45;;;;;;;6.60;2.88;;;;;;;14.99;67.56;100279.81;4990493;28;20053;-46
2022/05/19 06:51:12;;;;;;;8.40;3.70;;;;;;;14.98;67.29;100272.88;4985746;28;20506;-45
2022/05/19 06:53:48;;;;;;;;;;;;;;;14.90;67.62;100268.66;4989373;28;20564;-51
2022/05/19 06:56:15;;;;;;;8.70;3.53;;;;;;;15.04;67.95;100278.84;4996544;28;19922;-51
2022/05/19 06:58:42;;;;;;;7.70;3.78;;;;;;;15.11;67.25;100300.50;4992992;28;20065;-51
2022/05/19 07:01:08;;;;;;;9.52;3.80;;;;;;;15.19;67.47;100289.06;4995298;28;20547;-50
2022/05/19 07:03:35;;;;;;;9.20;4.15;;;;;;;15.26;67.44;100295.88;4994440;28;20048;-48
2022/05/19 07:06:02;;;;;;;10.45;3.90;;;;;;;15.31;67.20;100293.19;5000071;28;20061;-52
2022/05/19 07:08:29;;;;;;;9.82;4.10;;;;;;;15.39;67.18;100294.75;4999647;28;20096;-51
2022/05/19 07:10:56;;;;;;;8.35;3.92;;;;;;;15.38;67.15;100295.66;4997646;28;20108;-44
2022/05/19 07:13:22;;;;;;;8.90;3.80;;;;;;;15.40;67.16;100283.44;4992671;28;20062;-47
2022/05/19 07:15:49;;;;;;;8.90;4.00;;;;;;;15.39;66.69;100281.72;4995601;28;20137;-50
2022/05/19 07:18:16;;;;;;;6.40;3.67;;;;;;;15.37;67.06;100286.09;4995308;28;20101;-45
2022/05/19 07:20:44;;;;;;;7.45;3.00;;;;;;;15.35;66.57;100285.28;4999300;28;20058;-48
2022/05/19 07:23:14;;;;;;;10.07;3.42;;;;;;;15.39;67.14;100279.09;4994047;28;20054;-46
2022/05/19 07:25:43;;;;;;;8.07;3.83;;;;;;;15.45;67.51;100285.09;4995243;28;20042;-45
2022/05/19 07:28:10;;;;;;;6.25;3.83;;;;;;;15.50;66.91;100280.66;5001013;28;20054;-51
2022/05/19 07:30:37;;;;;;;13.98;4.28;;;;;;;15.53;66.61;100267.53;4997756;28;20541;-46
2022/05/19 07:33:04;;;;;;;10.02;3.92;;;;;;;15.61;66.80;100281.31;5003821;28;20140;-52
2022/05/19 07:35:31;;;;;;;11.73;4.28;;;;;;;15.67;67.43;100291.59;5001602;28;20050;-47
2022/05/19 07:37:58;;;;;;;8.13;3.72;;;;;;;15.70;66.63;100288.06;5003735;28;20053;-47
2022/05/19 07:40:25;;;;;;;9.45;4.10;;;;;;;15.75;67.03;100293.22;5008630;28;20050;-48
2022/05/19 07:42:51;;;;;;;6.57;2.80;;;;;;;15.77;66.58;100309.72;5007993;28;20046;-45
2022/05/19 07:45:19;;;;;;;7.80;3.33;;;;;;;15.81;66.76;100320.06;5004051;28;20065;-45
2022/05/19 07:47:45;;;;;;;7.20;3.40;;;;;;;15.91;66.69;100330.34;4998233;28;20617;-49
2022/05/19 07:50:12;;;;;;;5.78;2.65;;;;;;;16.00;66.11;100309.25;5005400;28;20099;-44
2022/05/19 07:52:39;;;;;;;5.22;2.50;;;;;;;16.07;66.50;100299.53;5002105;28;20049;-49
2022/05/19 07:55:08;;;;;;;7.65;2.53;;;;;;;16.12;66.18;100316.00;5002249;28;20054;-48
2022/05/19 07:57:36;;;;;;;4.75;2.88;;;;;;;16.17;65.93;100288.00;5003849;28;20058;-46
2022/05/19 08:00:05;;;;;;;5.68;2.58;;;;;;;16.18;65.24;100281.88;4997173;28;20053;-42
2022/05/19 08:02:32;;;;;;;6.03;2.55;;;;;;;16.21;65.47;100285.31;5002396;28;20046;-49
2022/05/19 08:05:16;;;;;;;6.32;2.13;;;;;;;16.21;64.86;100256.56;4998327;28;20045;-48
2022/05/19 08:07:43;;;;;;;7.97;2.58;;;;;;;16.13;65.02;100272.41;5001178;28;20050;-43
2022/05/19 08:10:31;;;;;;;5.43;2.25;;;;;;;16.11;65.03;100277.66;5000988;28;20038;-45
2022/05/19 08:15:47;;;;;;;6.50;2.88;;;;;;;16.13;65.20;100299.41;4999554;28;20050;-43
2022/05/19 08:18:17;;;;;;;6.72;2.67;;;;;;;16.21;65.73;100303.63;4985749;28;20053;-49
2022/05/19 08:20:48;;;;;;;7.35;2.50;;;;;;;16.34;65.61;100312.88;5010495;28;20088;-45
2022/05/19 08:23:19;;;;;;;6.40;2.35;;;;;;;16.48;65.39;100332.63;4999463;28;20494;-45
2022/05/19 08:25:47;;;;;;;4.95;2.28;;;;;;;16.65;65.20;100338.31;5005607;28;20054;-47
2022/05/19 08:28:16;;;;;;;5.88;2.83;;;;;;;16.79;64.82;100337.16;4999273;28;20077;-43
2022/05/19 08:30:45;;;;;;;;;;;;;;;16.79;65.20;100345.00;4993731;28;20080;-47
2022/05/19 08:33:12;;;;;;;8.32;3.47;;;;;;;17.14;65.55;100352.91;5004332;28;19921;-48
2022/05/19 08:35:38;;;;;;;8.63;3.50;;;;;;;17.41;65.00;100368.78;5007122;28;20421;-44
2022/05/19 08:38:06;;;;;;;7.28;3.65;;;;;;;17.57;63.28;100364.00;5002105;28;20466;-44
2022/05/19 08:40:38;;;;;;;8.07;3.83;;;;;;;17.66;63.71;100365.53;5004645;28;20050;-43
2022/05/19 08:43:04;;;;;;;7.90;3.33;;;;;;;17.67;63.12;100365.47;5000859;28;20050;-46
2022/05/19 08:45:38;;;;;;;7.35;3.40;;;;;;;17.68;63.01;100371.56;4997634;28;20060;-50
2022/05/19 08:48:10;;;;;;;7.53;3.42;;;;;;;17.91;63.99;100376.19;5001255;28;20046;-48
2022/05/19 08:53:34;;;;;;;6.38;3.33;;;;;;;18.69;62.83;100366.06;5157740;27;20388;-43
2022/05/19 08:56:11;;;;;;;5.80;3.67;;;;;;;19.18;62.90;100378.50;5105806;27;20054;-50
2022/05/19 09:13:23;;;;;;;7.00;3.83;;;;;;;20.39;54.37;100427.75;5035946;28;20399;-47
2022/05/19 09:15:52;;;;;;;9.13;2.65;;;;;;;20.41;57.27;100424.13;5002635;28;20580;-48
2022/05/19 09:18:25;;;;;;;6.78;2.55;;;;;;;20.83;57.65;100419.03;5001747;28;20578;-45
2022/05/19 09:20:55;;;;;;;7.97;2.63;;;;;;;20.92;56.47;100420.47;5001584;28;20057;-42
2022/05/19 09:23:23;;;;;;;5.35;2.55;;;;;;;20.77;55.44;100425.41;4998327;28;20042;-43
2022/05/19 09:25:57;;;;;;;6.28;2.67;;;;;;;20.88;55.75;100426.75;5002501;28;20050;-47
2022/05/19 09:28:24;;;;;;;5.53;1.92;;;;;;;20.84;54.90;100435.69;4999222;28;20487;-47
2022/05/19 09:30:54;;;;;;;9.70;2.28;;;;;;;20.80;55.45;100430.56;5002464;28;20325;-44
2022/05/19 09:33:30;;;;;;;5.00;1.98;;;;;;;21.18;55.58;100429.94;5001981;28;20050;-47
2022/05/19 09:35:59;;;;;;;5.90;2.42;;;;;;;21.51;55.25;100431.22;5001875;28;20124;-46
2022/05/19 09:43:57;;;;;;;6.63;2.05;;;;;;;21.98;53.92;100444.25;5023233;27;20428;-46
2022/05/19 09:46:30;;;;;;;6.13;2.40;;;;;;;22.32;53.58;100453.25;5008369;28;20046;-45
2022/05/19 09:49:03;;;;;;;5.88;1.98;;;;;;;22.38;52.41;100452.09;5016948;28;20045;-46
2022/05/19 09:51:42;;;;;;;6.38;1.70;;;;;;;22.54;51.33;100446.97;4983116;28;20053;-48
2022/05/19 09:54:12;;;;;;;6.03;1.83;;;;;;;22.45;51.18;100454.41;5007591;28;20460;-52
2022/05/19 09:59:32;;;;;;;4.80;2.80;;;;;;;21.97;50.28;100464.47;5018383;27;20405;-48
2022/05/19 10:02:11;;;;;;;6.18;2.80;;;;;;;22.04;50.60;100465.91;5046243;28;20104;-48
2022/05/19 10:04:41;;;;;;;4.53;2.88;;;;;;;22.28;50.86;100476.28;5021406;28;20064;-46
2022/05/19 10:07:22;;;;;;;4.32;3.08;;;;;;;22.55;51.39;100475.94;5019655;28;20053;-46
2022/05/19 10:09:53;;;;;;;4.50;2.30;;;;;;;22.80;50.10;100469.53;5020161;28;20119;-46
2022/05/19 10:12:28;;;;;;;3.85;2.55;;;;;;;22.73;49.53;100468.16;5021155;28;20050;-47
2022/05/19 10:15:04;;;;;;;6.18;3.28;;;;;;;22.59;48.66;100460.84;5020717;28;20046;-43
2022/05/19 10:31:30;;;;;;;4.35;1.42;;;;;;;21.77;47.42;100420.50;5024799;27;20406;-46
2022/05/19 10:37:26;;;;;;;5.75;2.17;;;;;;;21.66;48.16;100468.41;5041006;27;20874;-46
2022/05/19 11:15:09;;;;;;;4.13;0.90;;;;;;;23.17;44.56;100451.06;5060514;28;20388;-51
2022/05/19 17:05:46;;;;;;;7.32;1.30;;;;;;;21.78;41.72;100486.34;5049252;28;20404;-46
2022/05/19 17:08:13;;;;;;;5.88;1.58;;;;;;;21.74;41.71;100484.78;5034660;27;20112;-47
2022/05/19 17:10:44;;;;;;;7.82;1.20;;;;;;;21.70;41.69;100478.75;5007813;28;20057;-43
2022/05/19 17:13:15;;;;;;;5.68;1.70;;;;;;;21.72;42.10;100481.34;4998988;28;20058;-47
2022/05/19 17:15:43;;;;;;;4.95;1.63;;;;;;;21.71;41.99;100479.59;5006723;28;20060;-47
2022/05/19 17:18:28;;;;;;;6.97;1.33;;;;;;;21.66;42.62;100486.84;4998624;28;20060;-51
2022/05/19 17:20:55;;;;;;;4.05;1.10;;;;;;;21.58;42.29;100484.53;4998204;28;20070;-43
2022/05/19 17:23:21;;;;;;;7.45;1.58;;;;;;;21.45;42.81;100489.47;4985519;28;20062;-44
2022/05/19 17:25:48;;;;;;;8.55;1.60;;;;;;;21.42;42.94;100500.13;4992591;28;20533;-44
2022/05/19 17:28:16;;;;;;;5.95;1.40;;;;;;;21.32;42.57;100489.97;4988761;28;20058;-44
2022/05/19 17:30:43;;;;;;;6.22;1.50;;;;;;;21.23;42.83;100485.06;4989552;28;20046;-45
2022/05/19 17:33:10;;;;;;;5.18;1.40;;;;;;;21.16;42.63;100495.00;4990250;28;20077;-44
2022/05/19 17:35:39;;;;;;;5.28;1.13;;;;;;;21.17;43.09;100495.84;4991905;28;20085;-49
2022/05/19 17:38:08;;;;;;;4.60;1.75;;;;;;;21.17;42.76;100490.56;4991819;28;20697;-47
2022/05/19 17:40:36;;;;;;;3.80;1.08;;;;;;;21.17;42.75;100485.31;4998576;28;20116;-44
2022/05/19 17:43:04;;;;;;;7.90;2.45;;;;;;;21.10;43.05;100479.44;4990948;28;20062;-46
2022/05/19 17:45:32;;;;;;;3.15;0.77;;;;;;;21.07;42.69;100479.56;4989523;28;20145;-46
2022/05/19 17:48:00;;;;;;;5.05;1.00;;;;;;;21.06;42.66;100484.00;4985531;28;20054;-49
2022/05/19 17:50:26;;;;;;;5.55;0.93;;;;;;;21.02;42.93;100492.94;4990597;28;20630;-46
2022/05/19 17:52:55;;;;;;;4.38;1.10;;;;;;;20.94;42.67;100487.13;4992260;28;20557;-43
2022/05/19 17:55:23;;;;;;;5.47;1.30;;;;;;;20.84;42.63;100477.81;4986712;28;20060;-44
2022/05/19 17:57:51;;;;;;;4.53;1.50;;;;;;;20.69;42.79;100485.38;4990038;28;20612;-46
2022/05/19 18:00:22;;;;;;;7.07;1.00;;;;;;;20.57;42.45;100488.47;4987744;28;20050;-42
2022/05/19 18:02:49;;;;;;;3.70;1.35;;;;;;;20.45;43.34;100493.28;4995623;28;20085;-46
2022/05/19 18:05:16;;;;;;;5.53;2.13;;;;;;;20.37;42.85;100483.03;4993422;28;20510;-44
2022/05/19 18:07:43;;;;;;;7.25;1.00;;;;;;;20.24;43.26;100487.03;4992321;28;20053;-47
2022/05/19 18:10:13;;;;;;;5.85;0.90;;;;;;;20.12;43.07;100483.06;4993436;28;20061;-44
2022/05/19 18:12:40;;;;;;;4.63;1.17;;;;;;;20.02;43.00;100486.03;4993204;28;20419;-45
2022/05/19 18:20:44;;;;;;;5.38;1.00;;;;;;;19.71;43.81;100481.81;4977625;28;20058;-45
2022/05/19 18:23:11;;;;;;;4.57;1.27;;;;;;;19.63;43.90;100489.09;4978403;28;20081;-49
2022/05/19 18:25:40;;;;;;;3.80;1.08;;;;;;;19.57;43.93;100489.31;4983573;28;20054;-46
2022/05/19 18:28:07;;;;;;;4.28;0.57;;;;;;;19.45;43.86;100501.94;4985266;28;20043;-48
2022/05/19 18:30:35;;;;;;;3.38;0.88;;;;;;;19.38;43.91;100500.41;4986251;28;20062;-47
2022/05/19 18:33:03;;;;;;;4.90;0.52;;;;;;;19.29;44.14;100501.59;4985963;28;20061;-48
2022/05/19 18:35:33;;;;;;;4.30;0.90;;;;;;;19.20;43.60;100500.09;4985977;28;20454;-51
2022/05/19 18:38:02;;;;;;;1.55;0.88;;;;;;;19.10;43.90;100496.91;4984729;28;20049;-44
2022/05/19 18:46:03;;;;;;;3.28;0.88;;;;;;;18.80;44.05;100488.16;4984563;28;20042;-47
2022/05/19 18:48:30;;;;;;;4.38;1.30;;;;;;;18.72;44.67;100491.91;4987073;28;20072;-44
2022/05/19 18:50:57;;;;;;;3.28;1.38;;;;;;;18.64;44.13;100501.75;4983722;28;20105;-42
2022/05/19 18:53:25;;;;;;;4.63;1.08;;;;;;;18.58;44.06;100499.31;4977426;28;20062;-46
2022/05/19 18:55:53;;;;;;;3.97;1.65;;;;;;;18.48;44.20;100502.19;4990791;28;20042;-44
2022/05/19 18:58:19;;;;;;;4.05;1.17;;;;;;;18.41;44.70;100500.63;4988537;28;20058;-44
2022/05/19 19:00:46;;;;;;;2.65;1.17;;;;;;;18.31;44.19;100507.06;4985646;28;20046;-47
2022/05/19 19:03:13;;;;;;;3.50;1.13;;;;;;;18.21;44.36;100499.44;4988080;28;20050;-47
2022/05/19 19:05:39;;;;;;;4.00;1.15;;;;;;;18.14;45.04;100490.03;4984423;28;20050;-47
2022/05/19 19:08:06;;;;;;;2.78;0.70;;;;;;;18.08;44.38;100503.28;4985112;28;20540;-49
2022/05/19 19:10:33;;;;;;;4.93;1.35;;;;;;;18.01;44.83;100509.56;4980481;28;20100;-44
2022/05/19 19:13:00;;;;;;;4.65;1.33;;;;;;;17.92;44.45;100511.53;4984226;28;20393;-45
2022/05/19 19:15:28;;;;;;;5.15;0.70;;;;;;;17.85;45.09;100508.22;4988381;28;20054;-44
2022/05/19 19:17:55;;;;;;;5.20;1.23;;;;;;;17.78;44.97;100503.16;4986177;28;20470;-45
2022/05/19 19:20:23;;;;;;;5.18;1.08;;;;;;;17.71;45.34;100495.47;4983674;28;20104;-45
2022/05/19 19:22:49;;;;;;;3.47;1.33;;;;;;;17.62;45.86;100495.69;4986928;28;20050;-42
2022/05/19 19:25:16;;;;;;;2.72;0.65;;;;;;;17.56;45.28;100499.31;4986781;28;20055;-46
2022/05/19 19:27:42;;;;;;;5.35;1.27;;;;;;;17.51;45.57;100500.34;4986134;28;20454;-47
2022/05/19 19:30:11;;;;;;;4.63;1.10;;;;;;;17.43;45.73;100503.16;4986930;28;20054;-43